Time;durP1;ratioP1;P1;durP2;ratioP2;P2;SDS_P1;SDS_P2;PMS_P1;PMS_P2;Temp;Humidity;BMP_temperature;BMP_pressure;BME280_temperature;BME280_humidity;BME280_pressure;Samples;Min_cycle;Max_cycle;Signal;HPM_P1;HPM_P2
2023/12/26 00:01:30;;;;;;;1.92;1.40;;;5.90;99.90;;;;;;4990873;28;20080;-69
2023/12/26 00:03:56;;;;;;;2.63;1.63;;;5.90;99.90;;;;;;5000534;28;20031;-69
2023/12/26 00:06:22;;;;;;;1.35;1.33;;;5.80;99.90;;;;;;4997757;28;20074;-69
2023/12/26 00:08:48;;;;;;;2.05;1.38;;;5.80;99.90;;;;;;4988434;28;20031;-69
2023/12/26 00:11:15;;;;;;;1.48;1.38;;;5.80;99.90;;;;;;4981749;28;20100;-69
2023/12/26 00:13:41;;;;;;;1.30;1.20;;;5.80;99.90;;;;;;5006763;28;20056;-69
2023/12/26 00:16:07;;;;;;;2.50;1.65;;;5.70;99.90;;;;;;4997561;28;20071;-69
2023/12/26 00:18:33;;;;;;;2.05;1.60;;;5.60;99.90;;;;;;4988826;28;20423;-69
2023/12/26 00:20:58;;;;;;;1.55;1.33;;;5.70;99.90;;;;;;5026933;28;20089;-69
2023/12/26 00:23:24;;;;;;;1.67;1.58;;;5.50;99.90;;;;;;5008117;28;20505;-70
2023/12/26 00:25:50;;;;;;;2.78;1.40;;;5.50;99.90;;;;;;5019401;28;20024;-69
2023/12/26 00:28:19;;;;;;;1.13;1.13;;;5.50;99.90;;;;;;5015352;28;20038;-69
2023/12/26 00:30:45;;;;;;;1.50;1.40;;;5.50;99.90;;;;;;4995581;28;20414;-69
2023/12/26 00:33:11;;;;;;;1.52;1.33;;;5.40;99.90;;;;;;5000926;28;20117;-69
2023/12/26 00:35:36;;;;;;;1.48;1.30;;;5.30;99.90;;;;;;4988212;28;20523;-69
2023/12/26 00:38:02;;;;;;;1.85;1.45;;;5.40;99.90;;;;;;4987262;28;20034;-70
2023/12/26 00:40:28;;;;;;;2.55;1.70;;;5.40;99.90;;;;;;4986949;28;20076;-70
2023/12/26 00:42:54;;;;;;;1.73;1.25;;;5.30;99.90;;;;;;5027310;28;20028;-69
2023/12/26 00:45:22;;;;;;;4.07;1.65;;;5.30;99.90;;;;;;4996347;28;20617;-69
2023/12/26 00:47:48;;;;;;;2.92;1.60;;;5.20;99.90;;;;;;4996582;28;20710;-69
2023/12/26 00:50:16;;;;;;;1.58;1.48;;;5.20;99.90;;;;;;4997412;28;20030;-70
2023/12/26 00:52:42;;;;;;;2.60;1.48;;;5.20;99.90;;;;;;5036405;28;20046;-71
2023/12/26 00:55:08;;;;;;;2.55;1.85;;;5.20;99.90;;;;;;4999039;28;20024;-70
2023/12/26 00:57:34;;;;;;;3.95;1.70;;;5.20;99.90;;;;;;5020468;28;20072;-70
2023/12/26 01:00:00;;;;;;;2.65;1.42;;;5.20;99.90;;;;;;5026201;28;20028;-70
2023/12/26 01:02:26;;;;;;;1.42;1.33;;;5.10;99.90;;;;;;5035313;28;20029;-71
2023/12/26 01:04:52;;;;;;;2.58;1.50;;;5.10;99.90;;;;;;4982076;28;20027;-70
2023/12/26 01:07:17;;;;;;;1.92;1.52;;;5.20;99.90;;;;;;5039441;28;20020;-70
2023/12/26 01:09:43;;;;;;;2.28;1.60;;;5.20;99.90;;;;;;5023200;28;20039;-70
2023/12/26 01:12:09;;;;;;;2.13;1.60;;;5.20;99.90;;;;;;5023906;28;20526;-70
2023/12/26 01:14:35;;;;;;;1.30;1.20;;;5.20;99.90;;;;;;5021154;28;20119;-70
2023/12/26 01:17:01;;;;;;;2.70;1.33;;;5.10;99.90;;;;;;5023543;28;20018;-70
2023/12/26 01:19:27;;;;;;;2.80;1.52;;;5.10;99.90;;;;;;5018842;28;20026;-69
2023/12/26 01:21:53;;;;;;;4.20;1.75;;;5.10;99.90;;;;;;5022648;28;20118;-69
2023/12/26 01:24:18;;;;;;;1.23;1.13;;;5.10;99.90;;;;;;5004930;28;20030;-69
2023/12/26 01:26:44;;;;;;;1.58;1.27;;;5.20;99.90;;;;;;5004724;28;20129;-69
2023/12/26 01:29:10;;;;;;;1.08;1.05;;;5.20;99.90;;;;;;5013853;28;20028;-69
2023/12/26 01:31:36;;;;;;;2.78;1.60;;;5.20;99.90;;;;;;5017191;28;20101;-70
2023/12/26 01:34:06;;;;;;;3.10;1.40;;;5.30;99.90;;;;;;5014195;28;20065;-69
2023/12/26 01:36:35;;;;;;;2.75;1.70;;;5.20;99.90;;;;;;5032510;28;20022;-72
2023/12/26 01:39:01;;;;;;;1.65;1.35;;;5.20;99.90;;;;;;5005325;28;20030;-69
2023/12/26 01:41:27;;;;;;;2.55;1.38;;;5.20;99.90;;;;;;5009046;28;20026;-70
2023/12/26 01:43:52;;;;;;;2.15;1.35;;;5.20;99.90;;;;;;5043792;28;20454;-70
2023/12/26 01:46:19;;;;;;;3.53;1.67;;;5.10;99.90;;;;;;5020992;28;20055;-69
2023/12/26 01:48:50;;;;;;;2.22;1.88;;;5.20;99.90;;;;;;5015383;28;20061;-69
2023/12/26 01:51:17;;;;;;;36.78;15.50;;;5.20;99.90;;;;;;5017637;28;20125;-69
2023/12/26 01:53:43;;;;;;;5.32;3.80;;;5.10;99.90;;;;;;4996951;28;20038;-69
2023/12/26 01:56:11;;;;;;;13.75;5.53;;;5.10;99.90;;;;;;5017949;28;20234;-70
2023/12/26 01:58:37;;;;;;;51.07;17.50;;;5.10;99.90;;;;;;5020387;28;20609;-69
2023/12/26 02:01:06;;;;;;;149.70;56.42;;;5.10;99.90;;;;;;5031662;28;20589;-70
2023/12/26 02:03:32;;;;;;;53.90;19.45;;;5.00;99.90;;;;;;4988762;28;20500;-71
2023/12/26 02:06:00;;;;;;;36.38;15.90;;;5.00;99.90;;;;;;5001876;28;20027;-70
2023/12/26 02:08:26;;;;;;;37.42;15.00;;;5.00;99.90;;;;;;4998989;28;20060;-72
2023/12/26 02:10:52;;;;;;;41.97;16.10;;;5.00;99.90;;;;;;4997581;28;20042;-71
2023/12/26 02:13:18;;;;;;;31.13;12.57;;;4.90;99.90;;;;;;5003026;28;20042;-69
2023/12/26 02:15:48;;;;;;;46.42;18.90;;;4.90;99.90;;;;;;5059591;28;20179;-70
2023/12/26 02:18:15;;;;;;;57.35;23.10;;;4.90;99.90;;;;;;4999249;28;20014;-70
2023/12/26 02:20:40;;;;;;;22.00;11.80;;;4.90;99.90;;;;;;5018872;28;20056;-69
2023/12/26 02:23:06;;;;;;;16.17;9.35;;;4.80;99.90;;;;;;4995782;28;20556;-70
2023/12/26 02:25:32;;;;;;;7.82;7.03;;;4.80;99.90;;;;;;4997106;28;20476;-70
2023/12/26 02:28:00;;;;;;;11.60;9.80;;;4.80;99.90;;;;;;5052431;28;20041;-71
2023/12/26 02:30:27;;;;;;;5.88;5.32;;;4.80;99.90;;;;;;5049904;28;20045;-70
2023/12/26 02:32:53;;;;;;;5.03;4.53;;;4.70;99.90;;;;;;4978653;28;20414;-69
2023/12/26 02:35:20;;;;;;;3.53;3.22;;;4.70;99.90;;;;;;4983523;28;20483;-70
2023/12/26 02:37:49;;;;;;;3.60;2.75;;;4.70;99.90;;;;;;4995900;28;20022;-70
2023/12/26 02:40:15;;;;;;;3.60;3.15;;;4.70;99.90;;;;;;4999868;28;20053;-69
2023/12/26 02:42:41;;;;;;;3.00;2.70;;;4.70;99.90;;;;;;4975981;28;20022;-69
2023/12/26 02:45:07;;;;;;;2.30;2.20;;;4.60;99.90;;;;;;5016671;28;20091;-70
2023/12/26 02:47:33;;;;;;;2.38;1.77;;;4.60;99.90;;;;;;5000720;28;20106;-70
2023/12/26 02:49:59;;;;;;;3.25;1.77;;;4.50;99.90;;;;;;4989251;28;20109;-69
2023/12/26 02:52:24;;;;;;;1.55;1.45;;;4.60;99.90;;;;;;4993584;28;20022;-69
2023/12/26 02:54:50;;;;;;;1.80;1.60;;;4.50;99.90;;;;;;4994386;28;20036;-69
2023/12/26 02:57:16;;;;;;;2.80;1.90;;;4.50;99.90;;;;;;5004337;28;20022;-70
2023/12/26 02:59:41;;;;;;;2.42;1.70;;;4.50;99.90;;;;;;4993580;28;20054;-70
2023/12/26 03:02:07;;;;;;;1.27;1.27;;;4.50;99.90;;;;;;4991433;28;20031;-70
2023/12/26 03:04:33;;;;;;;1.65;1.52;;;4.50;99.90;;;;;;4997296;28;20022;-70
2023/12/26 03:06:58;;;;;;;3.08;1.50;;;4.50;99.90;;;;;;4999592;28;20026;-70
2023/12/26 03:09:24;;;;;;;2.10;1.50;;;4.50;99.90;;;;;;4991207;28;20047;-70
2023/12/26 03:11:50;;;;;;;1.55;1.35;;;4.60;99.90;;;;;;4997658;28;20035;-71
2023/12/26 03:14:16;;;;;;;1.63;1.50;;;4.60;99.90;;;;;;5017687;28;20134;-70
2023/12/26 03:16:41;;;;;;;2.22;1.33;;;4.60;99.90;;;;;;5003668;28;20027;-71
2023/12/26 03:19:07;;;;;;;2.83;1.60;;;4.60;99.90;;;;;;5024237;28;20042;-70
2023/12/26 03:21:33;;;;;;;1.35;1.23;;;4.60;99.90;;;;;;5049624;28;20163;-70
2023/12/26 03:23:59;;;;;;;2.88;1.50;;;4.50;99.90;;;;;;4999962;28;20032;-70
2023/12/26 03:26:24;;;;;;;1.30;1.20;;;4.60;99.90;;;;;;5000967;28;20035;-70
2023/12/26 03:28:50;;;;;;;1.30;1.20;;;4.50;99.90;;;;;;5017434;28;20019;-69
2023/12/26 03:31:16;;;;;;;2.55;1.30;;;4.60;99.90;;;;;;4993709;28;20035;-69
2023/12/26 03:33:42;;;;;;;1.77;1.67;;;4.50;99.90;;;;;;4971265;28;20495;-70
2023/12/26 03:36:08;;;;;;;2.38;1.88;;;4.60;99.90;;;;;;5015673;28;20035;-69
2023/12/26 03:38:35;;;;;;;2.55;1.50;;;4.50;99.90;;;;;;4989435;28;20055;-69
2023/12/26 03:41:01;;;;;;;2.40;1.40;;;4.50;99.90;;;;;;4996720;28;20035;-70
2023/12/26 03:43:26;;;;;;;3.85;2.10;;;4.50;99.90;;;;;;4995708;28;20032;-69
2023/12/26 03:45:52;;;;;;;3.78;1.77;;;4.50;99.90;;;;;;4982522;28;20073;-69
2023/12/26 03:48:18;;;;;;;1.90;1.80;;;4.60;99.90;;;;;;5001403;28;20039;-70
2023/12/26 03:50:44;;;;;;;1.65;1.55;;;4.60;99.90;;;;;;4993806;28;20062;-70
2023/12/26 03:53:09;;;;;;;1.67;1.58;;;4.60;99.90;;;;;;5011954;28;20434;-69
2023/12/26 03:55:35;;;;;;;1.15;1.15;;;4.60;99.90;;;;;;4998428;28;20054;-69
2023/12/26 03:58:01;;;;;;;3.47;1.25;;;4.70;99.90;;;;;;5031376;28;20027;-69
2023/12/26 04:00:29;;;;;;;1.17;0.90;;;4.70;99.90;;;;;;4983791;28;20031;-69
2023/12/26 04:02:55;;;;;;;1.35;1.27;;;4.70;99.90;;;;;;4987011;28;20035;-69
2023/12/26 04:05:21;;;;;;;2.05;1.48;;;4.70;99.90;;;;;;5006353;28;20031;-69
2023/12/26 04:07:48;;;;;;;1.95;1.30;;;4.60;99.90;;;;;;4998720;28;20035;-70
2023/12/26 04:10:13;;;;;;;1.43;1.30;;;4.60;99.90;;;;;;4971531;28;1176062;-70
2023/12/26 04:12:41;;;;;;;1.30;1.20;;;4.60;99.90;;;;;;5008703;28;20026;-69
2023/12/26 04:15:07;;;;;;;4.13;1.45;;;4.60;99.90;;;;;;5005356;28;20080;-69
2023/12/26 04:17:33;;;;;;;3.53;1.50;;;4.60;99.90;;;;;;5002969;28;20022;-69
2023/12/26 04:19:58;;;;;;;1.92;1.42;;;4.60;99.90;;;;;;4988577;28;20485;-69
2023/12/26 04:22:24;;;;;;;3.75;1.38;;;4.60;99.90;;;;;;5025157;28;20034;-70
2023/12/26 04:24:50;;;;;;;1.02;1.02;;;4.60;99.90;;;;;;5009114;28;20096;-71
2023/12/26 04:27:15;;;;;;;1.58;1.42;;;4.70;99.90;;;;;;5027383;28;20057;-72
2023/12/26 04:29:41;;;;;;;0.80;0.80;;;4.90;99.90;;;;;;5048319;28;20044;-70
2023/12/26 04:32:07;;;;;;;1.48;1.38;;;5.00;99.90;;;;;;5040003;28;20046;-69
2023/12/26 04:34:33;;;;;;;1.13;1.13;;;5.10;99.90;;;;;;5010417;28;20033;-69
2023/12/26 04:36:59;;;;;;;3.30;1.15;;;5.00;99.90;;;;;;5006501;28;20029;-69
2023/12/26 04:39:24;;;;;;;0.88;0.88;;;4.90;99.90;;;;;;4998111;28;20054;-70
2023/12/26 04:41:50;;;;;;;1.13;1.02;;;4.70;99.90;;;;;;5009316;28;20416;-68
2023/12/26 04:44:16;;;;;;;2.42;1.58;;;4.80;99.90;;;;;;5022231;28;20028;-69
2023/12/26 04:46:41;;;;;;;1.45;1.45;;;4.70;99.90;;;;;;5022359;28;20033;-68
2023/12/26 04:49:07;;;;;;;1.55;1.38;;;4.80;99.90;;;;;;5010929;28;20055;-70
2023/12/26 04:51:33;;;;;;;1.25;1.25;;;4.80;99.90;;;;;;5003656;28;20088;-69
2023/12/26 04:53:58;;;;;;;2.20;1.20;;;4.90;99.90;;;;;;4997215;28;20043;-69
2023/12/26 04:56:26;;;;;;;1.00;1.00;;;4.80;99.90;;;;;;4990332;28;20509;-69
2023/12/26 04:58:52;;;;;;;0.95;0.95;;;4.80;99.90;;;;;;4991685;28;20029;-69
2023/12/26 05:01:19;;;;;;;1.02;1.02;;;4.80;99.90;;;;;;4986613;28;20031;-69
2023/12/26 05:03:46;;;;;;;2.22;1.23;;;4.80;99.90;;;;;;5007736;28;20073;-70
2023/12/26 05:06:12;;;;;;;0.90;0.90;;;4.80;99.90;;;;;;4989638;28;20031;-69
2023/12/26 05:08:42;;;;;;;1.88;1.38;;;4.80;99.90;;;;;;4975094;28;20027;-69
2023/12/26 05:11:08;;;;;;;1.80;1.55;;;4.80;99.90;;;;;;4986821;28;20481;-69
2023/12/26 05:13:34;;;;;;;0.77;0.77;;;4.70;99.90;;;;;;4989094;28;20026;-69
2023/12/26 05:16:03;;;;;;;1.60;1.50;;;4.70;99.90;;;;;;4986179;28;20479;-69
2023/12/26 05:18:32;;;;;;;1.15;1.15;;;4.70;99.90;;;;;;4995190;28;20358;-70
2023/12/26 05:21:01;;;;;;;3.17;1.30;;;4.60;99.90;;;;;;4986506;28;20033;-69
2023/12/26 05:23:26;;;;;;;3.33;1.50;;;4.50;99.90;;;;;;4988783;28;20054;-69
2023/12/26 05:25:52;;;;;;;1.80;1.13;;;4.50;99.90;;;;;;4990972;28;20080;-69
2023/12/26 05:28:18;;;;;;;3.67;1.85;;;4.50;99.90;;;;;;4988064;28;20034;-69
2023/12/26 05:30:44;;;;;;;3.58;1.38;;;4.50;99.90;;;;;;4987096;28;20042;-70
2023/12/26 05:33:09;;;;;;;2.38;1.60;;;4.50;99.90;;;;;;4986333;28;20069;-69
2023/12/26 05:35:35;;;;;;;1.70;1.60;;;4.50;99.90;;;;;;4978681;28;20024;-69
2023/12/26 05:38:01;;;;;;;3.63;1.67;;;4.50;99.90;;;;;;5000013;28;20031;-69
2023/12/26 05:40:27;;;;;;;3.63;1.88;;;4.50;99.90;;;;;;4988434;28;20114;-69
2023/12/26 05:42:52;;;;;;;3.03;1.70;;;4.50;99.90;;;;;;5002670;28;20134;-70
2023/12/26 05:45:18;;;;;;;2.47;1.75;;;4.60;99.90;;;;;;4981596;28;20113;-70
2023/12/26 05:47:44;;;;;;;1.45;1.35;;;4.60;99.90;;;;;;4986052;28;20034;-70
2023/12/26 05:50:10;;;;;;;2.95;1.80;;;4.50;99.90;;;;;;4988049;28;20253;-71
2023/12/26 05:52:35;;;;;;;2.83;1.90;;;4.50;99.90;;;;;;5016930;28;20059;-71
2023/12/26 05:55:01;;;;;;;1.33;1.23;;;4.50;99.90;;;;;;4996621;28;20026;-70
2023/12/26 05:57:27;;;;;;;1.67;1.58;;;4.40;99.90;;;;;;4997512;28;20038;-70
2023/12/26 05:59:53;;;;;;;3.20;1.60;;;4.40;99.90;;;;;;4998532;28;20034;-70
2023/12/26 06:02:19;;;;;;;1.73;1.60;;;4.40;99.90;;;;;;4985451;28;20153;-69
2023/12/26 06:04:44;;;;;;;1.70;1.60;;;4.40;99.90;;;;;;5001354;28;20037;-69
2023/12/26 06:07:11;;;;;;;2.00;1.90;;;4.40;99.90;;;;;;4998283;28;20062;-71
2023/12/26 06:09:37;;;;;;;2.78;1.63;;;4.40;99.90;;;;;;4991522;28;20100;-69
2023/12/26 06:12:04;;;;;;;4.57;2.13;;;4.40;99.90;;;;;;4988791;28;20436;-69
2023/12/26 06:14:30;;;;;;;2.53;1.75;;;4.40;99.90;;;;;;4993242;28;20031;-69
2023/12/26 06:16:56;;;;;;;2.83;2.08;;;4.30;99.90;;;;;;4986558;28;20046;-69
2023/12/26 06:19:21;;;;;;;2.75;1.80;;;4.40;99.90;;;;;;4985337;28;20026;-69
2023/12/26 06:21:47;;;;;;;3.88;1.80;;;4.40;99.90;;;;;;4986971;28;20132;-69
2023/12/26 06:24:13;;;;;;;2.35;1.70;;;4.40;99.90;;;;;;4985742;28;20027;-68
2023/12/26 06:26:39;;;;;;;3.83;1.70;;;4.30;99.90;;;;;;4993233;28;20037;-70
2023/12/26 06:29:04;;;;;;;2.28;1.88;;;4.30;99.90;;;;;;4982713;28;20030;-69
2023/12/26 06:31:30;;;;;;;1.83;1.70;;;4.30;99.90;;;;;;4984598;28;20103;-69
2023/12/26 06:33:56;;;;;;;1.80;1.70;;;4.30;99.90;;;;;;4986242;28;20030;-69
2023/12/26 06:36:21;;;;;;;2.20;1.88;;;4.30;99.90;;;;;;4988635;28;21050;-69
2023/12/26 06:38:47;;;;;;;1.60;1.50;;;4.30;99.90;;;;;;4988571;28;20033;-69
2023/12/26 06:41:14;;;;;;;3.00;1.48;;;4.20;99.90;;;;;;4993178;28;20065;-70
2023/12/26 06:43:40;;;;;;;2.00;1.80;;;4.20;99.90;;;;;;4995441;28;20049;-70
2023/12/26 06:46:06;;;;;;;2.38;1.80;;;4.30;99.90;;;;;;4980680;28;20034;-70
2023/12/26 06:48:32;;;;;;;5.72;4.63;;;4.30;99.90;;;;;;4989002;28;20182;-70
2023/12/26 06:50:57;;;;;;;3.92;3.50;;;4.20;99.90;;;;;;4999128;28;20074;-72
2023/12/26 06:53:23;;;;;;;2.72;2.47;;;4.20;99.90;;;;;;4993405;28;20026;-75
2023/12/26 06:55:51;;;;;;;5.03;2.33;;;4.20;99.90;;;;;;5000944;28;20045;-70
2023/12/26 06:58:17;;;;;;;3.42;2.25;;;4.10;99.90;;;;;;4991281;28;20118;-70
2023/12/26 07:00:43;;;;;;;4.57;2.38;;;4.20;99.90;;;;;;4975537;28;20791;-70
2023/12/26 07:03:08;;;;;;;2.97;2.13;;;4.10;99.90;;;;;;4975797;28;20038;-69
2023/12/26 07:05:34;;;;;;;2.15;1.80;;;4.10;99.90;;;;;;4965450;28;20095;-70
2023/12/26 07:08:00;;;;;;;2.20;2.10;;;4.20;99.90;;;;;;4981290;28;20043;-71
2023/12/26 07:10:29;;;;;;;2.80;2.25;;;4.10;99.90;;;;;;4971263;28;20053;-70
2023/12/26 07:12:54;;;;;;;;;;;4.10;99.90;;;;;;4967106;28;20031;-71
2023/12/26 07:15:20;;;;;;;3.03;2.00;;;4.10;99.90;;;;;;4968822;28;20031;-70
2023/12/26 07:17:46;;;;;;;5.43;2.35;;;4.10;99.90;;;;;;4967529;28;20039;-70
2023/12/26 07:20:12;;;;;;;2.28;1.75;;;4.10;99.90;;;;;;4969723;28;20155;-70
2023/12/26 07:22:37;;;;;;;3.72;1.90;;;4.10;99.90;;;;;;4968103;28;20026;-72
2023/12/26 07:25:03;;;;;;;2.88;2.47;;;4.10;99.90;;;;;;4970390;28;20500;-71
2023/12/26 07:27:29;;;;;;;2.13;2.00;;;4.00;99.90;;;;;;4948221;28;20114;-69
2023/12/26 07:29:57;;;;;;;2.20;2.10;;;4.00;99.90;;;;;;4974140;28;20027;-72
2023/12/26 07:32:23;;;;;;;2.40;1.75;;;4.10;99.90;;;;;;4965984;28;20039;-71
2023/12/26 07:34:49;;;;;;;2.67;2.28;;;4.00;99.90;;;;;;4971337;28;20034;-71
2023/12/26 07:37:14;;;;;;;2.90;1.90;;;4.00;99.90;;;;;;4969739;28;20101;-71
2023/12/26 07:39:40;;;;;;;4.03;2.15;;;4.00;99.90;;;;;;4955257;28;20038;-71
2023/12/26 07:42:07;;;;;;;2.50;1.98;;;4.00;99.90;;;;;;4979452;28;20031;-69
2023/12/26 07:44:33;;;;;;;3.08;2.50;;;4.00;99.90;;;;;;4967500;28;20369;-69
2023/12/26 07:46:59;;;;;;;2.10;1.90;;;4.00;99.90;;;;;;4967083;28;20054;-70
2023/12/26 07:49:25;;;;;;;3.45;2.00;;;4.10;99.90;;;;;;4972923;28;20027;-71
2023/12/26 07:51:50;;;;;;;2.78;2.50;;;4.10;99.90;;;;;;4968195;28;20500;-70
2023/12/26 07:54:17;;;;;;;2.22;1.70;;;4.10;99.90;;;;;;4968594;28;20409;-69
2023/12/26 07:56:42;;;;;;;2.13;1.92;;;4.20;99.90;;;;;;4982861;28;20035;-71
2023/12/26 07:59:10;;;;;;;2.22;2.00;;;4.20;99.90;;;;;;4992978;28;20030;-70
2023/12/26 08:01:36;;;;;;;2.33;1.83;;;4.20;99.90;;;;;;4985998;28;20095;-69
2023/12/26 08:04:01;;;;;;;6.80;3.38;;;4.20;99.90;;;;;;4966831;28;20343;-71
2023/12/26 08:06:27;;;;;;;2.85;2.03;;;4.30;99.90;;;;;;4968451;28;20122;-70
2023/12/26 08:08:53;;;;;;;2.15;1.77;;;4.30;99.90;;;;;;4951769;28;20031;-70
2023/12/26 08:11:22;;;;;;;2.13;1.92;;;4.40;99.90;;;;;;4979101;28;20052;-70
2023/12/26 08:13:48;;;;;;;2.45;2.15;;;4.40;99.90;;;;;;4970366;28;20043;-71
2023/12/26 08:16:16;;;;;;;2.15;1.92;;;4.40;99.90;;;;;;5002696;28;20484;-71
2023/12/26 08:18:42;;;;;;;;;;;4.40;99.90;;;;;;4972681;28;20024;-70
2023/12/26 08:21:10;;;;;;;3.92;2.05;;;4.40;99.90;;;;;;4982347;28;20005;-70
2023/12/26 08:23:37;;;;;;;5.18;2.05;;;4.50;99.90;;;;;;4964198;28;20478;-71
2023/12/26 08:26:07;;;;;;;2.22;2.00;;;4.50;99.90;;;;;;4978926;28;20057;-69
2023/12/26 08:28:33;;;;;;;4.68;2.20;;;4.60;99.90;;;;;;4973643;28;20027;-70
2023/12/26 08:30:59;;;;;;;5.03;2.40;;;4.60;99.90;;;;;;4976190;28;20035;-70
2023/12/26 08:33:29;;;;;;;4.57;2.08;;;4.60;99.90;;;;;;4989905;28;20602;-70
2023/12/26 08:35:55;;;;;;;4.25;1.90;;;4.70;99.90;;;;;;4983680;28;20096;-70
2023/12/26 08:38:21;;;;;;;3.15;1.70;;;4.70;99.90;;;;;;4971793;28;20026;-69
2023/12/26 08:40:48;;;;;;;3.22;1.75;;;4.70;99.90;;;;;;4976004;28;20409;-69
2023/12/26 08:43:14;;;;;;;1.65;1.55;;;4.80;99.90;;;;;;4974466;28;20027;-70
2023/12/26 08:45:40;;;;;;;3.38;1.70;;;4.80;99.90;;;;;;4981773;28;20039;-71
2023/12/26 08:48:06;;;;;;;2.58;1.50;;;4.90;99.90;;;;;;4994484;28;20027;-71
2023/12/26 08:50:32;;;;;;;2.47;1.60;;;5.00;99.90;;;;;;4975115;28;20038;-70
2023/12/26 08:52:58;;;;;;;2.72;2.03;;;5.10;99.90;;;;;;4982937;28;20041;-70
2023/12/26 08:55:23;;;;;;;3.78;2.08;;;5.10;99.90;;;;;;4977985;28;20080;-70
2023/12/26 08:57:49;;;;;;;2.75;1.73;;;5.10;99.90;;;;;;4974743;28;20141;-71
2023/12/26 09:00:19;;;;;;;4.93;2.10;;;5.20;99.90;;;;;;4976996;28;20032;-70
2023/12/26 09:02:45;;;;;;;4.65;2.03;;;5.20;99.90;;;;;;4991221;28;20043;-70
2023/12/26 09:05:11;;;;;;;4.82;2.00;;;5.30;99.90;;;;;;4973539;28;20576;-70
2023/12/26 09:07:40;;;;;;;2.35;1.63;;;5.40;99.90;;;;;;4974230;28;20096;-71
2023/12/26 09:10:06;;;;;;;;;;;5.50;99.90;;;;;;4989433;28;20051;-70
2023/12/26 09:12:32;;;;;;;2.38;1.88;;;5.50;99.90;;;;;;4972840;28;20005;-70
2023/12/26 09:14:58;;;;;;;2.17;1.95;;;5.60;99.90;;;;;;4979191;28;20059;-70
2023/12/26 09:17:23;;;;;;;1.20;1.08;;;5.70;99.90;;;;;;4983271;28;20580;-70
2023/12/26 09:19:49;;;;;;;3.42;1.75;;;5.80;99.90;;;;;;4975973;28;20027;-70
2023/12/26 09:22:15;;;;;;;5.40;2.10;;;5.90;99.90;;;;;;5014468;28;20030;-70
2023/12/26 09:24:44;;;;;;;3.90;1.92;;;5.90;99.90;;;;;;5022908;28;20031;-70
2023/12/26 09:27:23;;;;;;;2.60;2.05;;;6.00;99.90;;;;;;4996406;28;20025;-71
2023/12/26 09:29:50;;;;;;;1.42;1.33;;;6.10;99.90;;;;;;4990036;28;20020;-70
2023/12/26 09:32:15;;;;;;;2.47;1.77;;;6.10;99.90;;;;;;4967953;28;20050;-71
2023/12/26 09:34:44;;;;;;;9.50;5.85;;;6.20;99.90;;;;;;4992673;28;20035;-68
2023/12/26 09:37:10;;;;;;;7.60;4.32;;;6.20;99.90;;;;;;5001497;28;20035;-70
2023/12/26 09:39:35;;;;;;;12.70;7.00;;;6.30;99.90;;;;;;5002486;28;20486;-69
2023/12/26 09:42:03;;;;;;;16.25;9.93;;;6.30;99.90;;;;;;4993539;28;20050;-71
2023/12/26 09:44:30;;;;;;;47.33;20.40;;;6.30;99.90;;;;;;5005940;28;20535;-70
2023/12/26 09:46:56;;;;;;;11.27;6.78;;;6.40;99.90;;;;;;5000683;28;20464;-71
2023/12/26 09:49:21;;;;;;;11.43;5.50;;;6.40;99.90;;;;;;4985134;28;20065;-71
2023/12/26 09:51:55;;;;;;;7.07;4.60;;;6.50;99.90;;;;;;5003948;28;20052;-70
2023/12/26 09:54:24;;;;;;;7.05;4.15;;;6.50;99.90;;;;;;4998738;28;20032;-70
2023/12/26 09:56:52;;;;;;;;;;;6.60;99.90;;;;;;4989176;28;20027;-70
2023/12/26 09:59:19;;;;;;;;;;;6.60;99.90;;;;;;4986195;28;19978;-70
2023/12/26 10:01:45;;;;;;;1.30;1.30;;;6.70;99.90;;;;;;5000282;28;20452;-69
2023/12/26 10:04:11;;;;;;;1.15;1.15;;;6.70;99.90;;;;;;4993207;28;20488;-70
2023/12/26 10:06:43;;;;;;;2.88;1.40;;;6.80;99.90;;;;;;4985709;28;20023;-71
2023/12/26 10:09:09;;;;;;;2.30;1.67;;;6.80;99.90;;;;;;5000550;28;20125;-70
2023/12/26 10:11:47;;;;;;;3.03;1.70;;;6.90;99.90;;;;;;5000422;28;20114;-70
2023/12/26 10:14:30;;;;;;;3.05;1.50;;;6.90;99.90;;;;;;4991951;28;20456;-69
2023/12/26 10:16:56;;;;;;;1.77;1.17;;;7.00;99.90;;;;;;4988031;28;20084;-69
2023/12/26 10:19:25;;;;;;;2.65;1.58;;;7.00;99.90;;;;;;4996816;28;20052;-69
2023/12/26 10:22:41;;;;;;;4.78;3.03;;;7.00;99.90;;;;;;5014553;28;20030;-70
2023/12/26 10:28:45;;;;;;;1.67;1.48;;;7.10;99.90;;;;;;4977987;28;20034;-70
2023/12/26 10:31:51;;;;;;;2.03;1.52;;;7.10;99.90;;;;;;4967799;28;20035;-71
2023/12/26 10:37:56;;;;;;;2.08;1.70;;;7.20;99.90;;;;;;5002770;28;20041;-70
2023/12/26 10:43:27;;;;;;;1.52;1.42;;;7.30;99.90;;;;;;4930918;28;20042;-72
2023/12/26 10:46:27;;;;;;;1.70;1.60;;;7.40;99.90;;;;;;4986732;28;20564;-69
2023/12/26 10:48:56;;;;;;;3.97;2.40;;;7.40;99.90;;;;;;5004663;28;20161;-70
2023/12/26 10:52:20;;;;;;;;;;;;;;;;;;;;;
2023/12/26 10:54:47;;;;;;;1.85;1.70;;;7.50;99.90;;;;;;4975033;28;20033;-69
2023/12/26 10:57:41;;;;;;;1.70;1.60;;;7.70;99.90;;;;;;5005598;28;20023;-70
2023/12/26 13:52:07;;;;;;;1.55;1.20;;;9.40;99.90;;;;;;4987910;28;20024;-70
2023/12/26 13:54:36;;;;;;;4.03;2.25;;;9.30;99.90;;;;;;4981191;28;20023;-70
2023/12/26 13:57:14;;;;;;;2.45;1.80;;;9.30;99.90;;;;;;4974882;28;20110;-70
2023/12/26 13:59:55;;;;;;;2.13;1.30;;;9.30;99.90;;;;;;4969276;28;20708;-70
2023/12/26 14:02:24;;;;;;;4.18;1.70;;;9.20;99.90;;;;;;4975857;28;20144;-70
2023/12/26 14:05:01;;;;;;;3.35;1.75;;;9.10;99.90;;;;;;5031274;28;20059;-71
2023/12/26 14:07:43;;;;;;;3.70;2.30;;;9.10;99.90;;;;;;4976427;28;20031;-70
2023/12/26 14:10:49;;;;;;;2.42;1.60;;;9.10;99.90;;;;;;5041179;28;20067;-70
2023/12/26 14:14:01;;;;;;;2.75;1.55;;;9.10;99.90;;;;;;5062549;28;20025;-70
2023/12/26 14:17:07;;;;;;;2.92;1.30;;;9.10;99.90;;;;;;5051392;28;20537;-71
2023/12/26 14:20:11;;;;;;;1.80;1.27;;;9.10;99.90;;;;;;5052602;28;20028;-71
2023/12/26 14:23:17;;;;;;;3.25;1.88;;;9.10;99.90;;;;;;5049385;28;20035;-71
2023/12/26 14:26:30;;;;;;;2.13;1.30;;;9.00;99.90;;;;;;5051451;28;20043;-71
2023/12/26 14:29:39;;;;;;;2.53;1.92;;;9.00;99.90;;;;;;5054620;28;20032;-71
2023/12/26 14:36:05;;;;;;;4.45;2.20;;;9.00;99.90;;;;;;5054098;28;20086;-70
2023/12/26 14:39:08;;;;;;;3.00;2.10;;;8.90;99.90;;;;;;5067488;28;20024;-71
2023/12/26 14:42:14;;;;;;;3.42;1.83;;;8.90;99.90;;;;;;5055787;28;20016;-72
2023/12/26 14:45:21;;;;;;;4.47;1.55;;;8.80;99.90;;;;;;5046742;28;20057;-71
2023/12/26 14:48:27;;;;;;;1.85;1.50;;;8.80;99.90;;;;;;5046957;28;20484;-72
2023/12/26 14:51:30;;;;;;;6.18;2.10;;;8.70;99.90;;;;;;5047381;28;20079;-71
2023/12/26 14:54:34;;;;;;;3.28;1.40;;;8.70;99.90;;;;;;5051066;28;20499;-71
2023/12/26 14:57:40;;;;;;;4.18;1.98;;;8.60;99.90;;;;;;5056763;28;20021;-72
2023/12/26 15:00:53;;;;;;;;;;;;;;;;;;;;;
2023/12/26 15:03:29;;;;;;;7.15;3.50;;;8.60;99.90;;;;;;5050210;28;20807;-70
2023/12/26 15:06:18;;;;;;;5.53;4.47;;;8.60;99.90;;;;;;5065725;28;20082;-71
2023/12/26 15:12:00;;;;;;;4.97;2.15;;;8.60;99.90;;;;;;4982076;28;20502;-72
2023/12/26 15:14:43;;;;;;;2.13;1.92;;;8.60;99.90;;;;;;4966148;28;20100;-72
2023/12/26 15:17:09;;;;;;;2.85;2.40;;;8.60;99.90;;;;;;4970696;28;20100;-71
2023/12/26 15:19:41;;;;;;;4.30;1.90;;;8.50;99.90;;;;;;4979168;28;20038;-70
2023/12/26 15:22:54;;;;;;;3.40;2.42;;;8.50;99.90;;;;;;5011716;28;20017;-70
2023/12/26 15:25:33;;;;;;;2.40;1.67;;;8.50;99.90;;;;;;4972887;28;20031;-71
2023/12/26 15:28:02;;;;;;;3.38;2.03;;;8.50;99.90;;;;;;5000909;28;20037;-71
2023/12/26 15:30:31;;;;;;;3.13;1.40;;;8.40;99.90;;;;;;4970380;28;20046;-70
2023/12/26 15:33:23;;;;;;;2.17;1.67;;;8.40;99.90;;;;;;4983548;28;20037;-71
2023/12/26 15:35:52;;;;;;;1.80;1.70;;;8.40;99.90;;;;;;5010190;28;20074;-71
2023/12/26 15:38:32;;;;;;;;;;;8.40;99.90;;;;;;4998951;28;20418;-71
2023/12/26 15:40:58;;;;;;;1.73;1.60;;;8.40;99.90;;;;;;4971575;28;19921;-70
2023/12/26 15:43:27;;;;;;;6.20;1.83;;;8.40;99.90;;;;;;4967557;28;20047;-71
2023/12/26 15:45:56;;;;;;;3.63;1.85;;;8.40;99.90;;;;;;4972556;28;20034;-70
2023/12/26 15:48:27;;;;;;;3.10;1.98;;;8.40;99.90;;;;;;4982030;28;20028;-70
2023/12/26 15:50:55;;;;;;;4.82;2.10;;;8.40;99.90;;;;;;4964587;28;20022;-71
2023/12/26 15:53:32;;;;;;;2.22;1.80;;;8.40;99.90;;;;;;4986804;28;20031;-71
2023/12/26 15:56:00;;;;;;;3.72;2.28;;;8.30;99.90;;;;;;4979496;28;20592;-71
2023/12/26 15:58:28;;;;;;;4.97;2.42;;;8.40;99.90;;;;;;5000306;28;20031;-71
2023/12/26 16:00:59;;;;;;;2.22;1.67;;;8.30;99.90;;;;;;4981689;28;20048;-72
2023/12/26 16:03:25;;;;;;;2.50;2.17;;;8.30;99.90;;;;;;4998532;28;20105;-71
2023/12/26 16:05:53;;;;;;;3.88;2.40;;;8.30;99.90;;;;;;4997881;28;20023;-70
2023/12/26 16:08:25;;;;;;;4.85;2.15;;;8.30;99.90;;;;;;4980411;28;20063;-70
2023/12/26 16:10:52;;;;;;;4.10;2.13;;;8.30;99.90;;;;;;5031022;28;20037;-70
2023/12/26 16:13:19;;;;;;;4.18;2.35;;;8.20;99.90;;;;;;4982961;28;20033;-70
2023/12/26 16:15:45;;;;;;;2.35;2.08;;;8.20;99.90;;;;;;5030965;28;20492;-69
2023/12/26 16:18:14;;;;;;;2.35;1.77;;;8.10;99.90;;;;;;5048351;28;20535;-70
2023/12/26 16:20:40;;;;;;;;;;;8.10;99.90;;;;;;5048605;28;20415;-70
2023/12/26 16:23:08;;;;;;;2.58;2.05;;;8.00;99.90;;;;;;5040353;28;19929;-70